Time;durP1;ratioP1;P1;durP2;ratioP2;P2;SDS_P1;SDS_P2;PMS_P1;PMS_P2;Temp;Humidity;BMP_temperature;BMP_pressure;BME280_temperature;BME280_humidity;BME280_pressure;Samples;Min_cycle;Max_cycle;Signal;HPM_P1;HPM_P2
2021/11/11 00:00:25;;;;;;;37.25;22.15;;;;;;;4.98;100.00;101954.28;5111613;28;20019;-68
2021/11/11 00:02:51;;;;;;;34.28;20.55;;;;;;;4.91;100.00;101943.03;5110135;28;20478;-67
2021/11/11 00:05:17;;;;;;;40.63;21.15;;;;;;;4.76;100.00;101914.38;5111442;28;20074;-68
2021/11/11 00:07:43;;;;;;;37.08;20.27;;;;;;;4.86;100.00;101930.84;5110437;28;20051;-68
2021/11/11 00:10:10;;;;;;;40.55;21.58;;;;;;;4.90;100.00;101937.78;5108932;28;20041;-68
2021/11/11 00:12:36;;;;;;;37.28;20.90;;;;;;;4.93;100.00;101943.81;5111354;28;20031;-69
2021/11/11 00:15:07;;;;;;;33.55;19.48;;;;;;;4.96;100.00;101938.38;5109828;28;20019;-69
2021/11/11 00:17:32;;;;;;;38.25;20.60;;;;;;;4.92;100.00;101936.78;5111181;28;20399;-68
2021/11/11 00:19:58;;;;;;;31.23;18.52;;;;;;;4.91;100.00;101932.41;5111412;28;20106;-68
2021/11/11 00:22:24;;;;;;;39.95;19.65;;;;;;;4.94;100.00;101936.72;5110923;28;20051;-68
2021/11/11 00:24:50;;;;;;;35.15;18.60;;;;;;;4.89;100.00;101920.06;5109825;28;20033;-69
2021/11/11 00:27:15;;;;;;;53.10;18.48;;;;;;;4.85;100.00;101921.13;5109585;28;20059;-68
2021/11/11 00:29:41;;;;;;;32.63;19.73;;;;;;;4.80;100.00;101915.13;5111209;28;20416;-68
2021/11/11 00:32:07;;;;;;;35.20;18.90;;;;;;;4.82;100.00;101915.94;5111427;28;20455;-69
2021/11/11 00:34:33;;;;;;;35.33;19.58;;;;;;;4.80;100.00;101913.31;5110880;28;20490;-68
2021/11/11 00:36:59;;;;;;;30.27;19.25;;;;;;;4.74;100.00;101901.16;5112699;28;20032;-69
2021/11/11 00:39:25;;;;;;;32.63;18.38;;;;;;;4.78;100.00;101909.88;5109679;28;20383;-68
2021/11/11 00:41:51;;;;;;;31.83;18.52;;;;;;;4.76;100.00;101906.41;5110572;28;20031;-69
2021/11/11 00:44:16;;;;;;;32.58;18.05;;;;;;;4.72;100.00;101902.13;5109538;28;20042;-69
2021/11/11 00:46:42;;;;;;;33.78;18.70;;;;;;;4.62;100.00;101890.13;5110514;28;20031;-68
2021/11/11 00:49:07;;;;;;;29.50;17.65;;;;;;;4.66;100.00;101892.63;5110618;28;20202;-68
2021/11/11 00:51:37;;;;;;;31.38;18.02;;;;;;;4.54;100.00;101879.78;5110513;28;20020;-68
2021/11/11 00:54:05;;;;;;;28.25;17.38;;;;;;;4.64;100.00;101886.47;5110859;28;20019;-69
2021/11/11 00:56:32;;;;;;;27.45;16.92;;;;;;;4.46;100.00;101857.94;5110608;28;20072;-67
2021/11/11 00:58:58;;;;;;;32.28;17.83;;;;;;;4.59;100.00;101879.63;5110466;28;20031;-68
2021/11/11 01:01:27;;;;;;;32.97;17.48;;;;;;;4.64;100.00;101885.59;5110195;28;20035;-69
2021/11/11 01:03:54;;;;;;;29.80;17.38;;;;;;;4.58;100.00;101878.75;5108135;28;20076;-68
2021/11/11 01:06:19;;;;;;;30.40;16.55;;;;;;;4.54;100.00;101877.13;5110774;28;20475;-69
2021/11/11 01:08:45;;;;;;;31.67;16.85;;;;;;;4.43;100.00;101857.22;5110472;28;20030;-69
2021/11/11 01:11:10;;;;;;;34.28;17.13;;;;;;;4.45;100.00;101864.19;5110587;28;20067;-68
2021/11/11 01:13:37;;;;;;;30.60;16.88;;;;;;;4.52;100.00;101875.47;5109022;28;20032;-68
2021/11/11 01:16:03;;;;;;;31.33;17.92;;;;;;;4.50;100.00;101879.97;5110148;28;20027;-69
2021/11/11 01:18:29;;;;;;;28.20;16.63;;;;;;;4.39;100.00;101864.44;5108962;28;20511;-68
2021/11/11 01:20:54;;;;;;;29.05;17.52;;;;;;;4.48;100.00;101887.13;5108926;28;20119;-68
2021/11/11 01:23:20;;;;;;;35.90;17.90;;;;;;;4.46;100.00;101878.34;5110048;28;20039;-69
2021/11/11 01:25:45;;;;;;;27.42;17.65;;;;;;;4.36;100.00;101859.22;5109103;28;20105;-68
2021/11/11 01:28:11;;;;;;;33.17;16.52;;;;;;;4.26;100.00;101833.09;5110214;28;20023;-68
2021/11/11 01:30:39;;;;;;;33.17;18.30;;;;;;;4.38;100.00;101860.06;5110275;28;20463;-70
2021/11/11 01:33:06;;;;;;;29.50;17.80;;;;;;;4.37;100.00;101868.06;5110244;28;20413;-69
2021/11/11 01:35:32;;;;;;;30.35;17.95;;;;;;;4.34;100.00;101865.53;5108844;28;20110;-68
2021/11/11 01:37:58;;;;;;;32.78;17.00;;;;;;;4.34;100.00;101860.22;5110071;28;20031;-69
2021/11/11 01:40:24;;;;;;;28.05;17.38;;;;;;;4.27;100.00;101854.28;5108819;28;20104;-69
2021/11/11 01:42:56;;;;;;;26.17;16.30;;;;;;;4.33;100.00;101859.34;5108602;28;20034;-68
2021/11/11 01:45:27;;;;;;;28.13;16.55;;;;;;;4.30;100.00;101848.00;5109938;28;20019;-69
2021/11/11 01:47:53;;;;;;;25.23;15.50;;;;;;;4.27;100.00;101848.09;5110002;28;20031;-69
2021/11/11 01:50:19;;;;;;;28.73;16.55;;;;;;;4.28;100.00;101856.00;5108895;28;20027;-68
2021/11/11 01:52:46;;;;;;;24.73;15.88;;;;;;;4.28;100.00;101850.69;5110087;28;20030;-69
2021/11/11 01:55:12;;;;;;;27.30;16.20;;;;;;;4.17;100.00;101833.44;5113083;28;20471;-69
2021/11/11 01:57:37;;;;;;;29.33;16.40;;;;;;;4.22;100.00;101836.78;5112450;28;20495;-69
2021/11/11 02:00:18;;;;;;;33.75;16.85;;;;;;;4.27;100.00;101846.31;5113979;28;20065;-68
2021/11/11 02:02:44;;;;;;;28.30;16.48;;;;;;;4.25;100.00;101849.94;5112615;28;20036;-68
2021/11/11 02:05:10;;;;;;;27.42;16.60;;;;;;;4.26;100.00;101857.84;5113907;28;20038;-69
2021/11/11 02:07:35;;;;;;;27.20;16.83;;;;;;;4.23;100.00;101852.66;5112353;28;20020;-69
2021/11/11 02:10:01;;;;;;;27.77;15.93;;;;;;;4.21;100.00;101846.53;5113597;28;20493;-70
2021/11/11 02:12:31;;;;;;;30.33;16.60;;;;;;;4.18;100.00;101841.34;5112073;28;20026;-69
2021/11/11 02:14:57;;;;;;;28.83;16.80;;;;;;;4.16;100.00;101843.19;5113729;28;20028;-68
2021/11/11 02:17:28;;;;;;;32.63;16.95;;;;;;;4.15;100.00;101841.47;5113689;28;20016;-69
2021/11/11 02:20:08;;;;;;;29.02;16.48;;;;;;;4.20;100.00;101843.94;5113486;28;20067;-69
2021/11/11 02:22:34;;;;;;;29.23;15.98;;;;;;;4.14;100.00;101833.56;5111692;28;20071;-69
2021/11/11 02:25:00;;;;;;;24.30;15.60;;;;;;;4.12;100.00;101830.94;5113192;28;20063;-69
2021/11/11 02:27:26;;;;;;;25.13;15.27;;;;;;;4.05;100.00;101823.25;5112022;28;20078;-69
2021/11/11 02:29:51;;;;;;;26.45;15.95;;;;;;;4.05;100.00;101820.63;5112006;28;20495;-69
2021/11/11 02:32:18;;;;;;;27.27;16.55;;;;;;;4.12;100.00;101830.94;5111942;28;20012;-68
2021/11/11 02:34:44;;;;;;;24.40;14.70;;;;;;;4.01;100.00;101808.38;5113295;28;20058;-69
2021/11/11 02:37:09;;;;;;;21.95;13.82;;;;;;;4.06;100.00;101815.25;5113004;28;20099;-69
2021/11/11 02:39:40;;;;;;;24.77;14.02;;;;;;;3.80;100.00;101764.03;5111652;28;20479;-68
2021/11/11 02:42:05;;;;;;;24.45;14.80;;;;;;;4.03;100.00;101801.25;5113016;28;20023;-68
2021/11/11 02:44:32;;;;;;;29.08;16.05;;;;;;;4.04;100.00;101805.63;5111700;28;20031;-69
2021/11/11 02:46:58;;;;;;;25.08;13.90;;;;;;;3.91;100.00;101781.34;5112985;28;20019;-69
2021/11/11 02:49:33;;;;;;;26.27;15.07;;;;;;;4.03;100.00;101809.22;5111597;28;20028;-69
2021/11/11 02:51:59;;;;;;;22.02;14.63;;;;;;;3.92;100.00;101801.63;5112696;28;20027;-69
2021/11/11 02:54:25;;;;;;;27.33;15.48;;;;;;;3.98;100.00;101805.84;5112820;27;20084;-68
2021/11/11 02:56:51;;;;;;;25.52;15.43;;;;;;;3.84;100.00;101789.56;5112738;28;20043;-70
2021/11/11 02:59:16;;;;;;;30.67;15.48;;;;;;;3.88;100.00;101793.84;5112905;28;20024;-69
2021/11/11 03:01:42;;;;;;;23.30;15.30;;;;;;;3.81;100.00;101798.50;5112766;28;20027;-68
2021/11/11 03:04:07;;;;;;;28.58;14.82;;;;;;;3.76;100.00;101796.94;5112763;28;20037;-69
2021/11/11 03:06:33;;;;;;;28.50;15.23;;;;;;;3.74;100.00;101796.13;5110584;28;20302;-70
2021/11/11 03:09:00;;;;;;;26.42;14.55;;;;;;;3.70;100.00;101799.81;5111244;28;20100;-70
2021/11/11 03:11:30;;;;;;;20.20;13.30;;;;;;;3.66;100.00;101804.38;5112526;28;20020;-69
2021/11/11 03:13:55;;;;;;;24.00;14.63;;;;;;;3.62;100.00;101802.75;5110958;28;20122;-69
2021/11/11 03:16:21;;;;;;;26.00;14.30;;;;;;;3.58;100.00;101798.47;5112409;28;20106;-69
2021/11/11 03:18:47;;;;;;;25.65;14.13;;;;;;;3.47;100.00;101778.53;5112338;28;20488;-69
2021/11/11 03:21:12;;;;;;;24.23;14.07;;;;;;;3.55;100.00;101787.94;5112010;28;20064;-70
2021/11/11 03:23:38;;;;;;;22.48;14.07;;;;;;;3.54;100.00;101793.31;5112312;28;20027;-69
2021/11/11 03:26:03;;;;;;;26.73;14.48;;;;;;;3.40;100.00;101766.44;5112232;28;20072;-68
2021/11/11 03:28:29;;;;;;;22.25;13.90;;;;;;;3.40;100.00;101772.59;5111967;28;20415;-70
2021/11/11 03:30:55;;;;;;;22.27;14.02;;;;;;;3.45;100.00;101777.75;5112065;28;20084;-69
2021/11/11 03:33:20;;;;;;;24.08;13.40;;;;;;;3.47;100.00;101789.16;5111999;28;20023;-70
2021/11/11 03:35:47;;;;;;;20.52;13.02;;;;;;;3.45;100.00;101789.19;5112046;28;20303;-69
2021/11/11 03:38:12;;;;;;;21.02;12.65;;;;;;;3.45;100.00;101783.06;5110525;28;20032;-69
2021/11/11 03:40:42;;;;;;;23.73;12.75;;;;;;;3.35;100.00;101776.34;5111963;28;20026;-68
2021/11/11 03:43:08;;;;;;;22.92;13.52;;;;;;;3.38;100.00;101778.84;5111704;28;20103;-68
2021/11/11 03:45:34;;;;;;;22.30;13.57;;;;;;;3.33;100.00;101778.16;5110645;28;20077;-69
2021/11/11 03:48:01;;;;;;;20.02;12.40;;;;;;;3.29;100.00;101768.59;5109682;28;20034;-68
2021/11/11 03:50:27;;;;;;;18.00;12.10;;;;;;;3.22;100.00;101756.47;5109617;28;20023;-70
2021/11/11 03:52:55;;;;;;;21.60;13.30;;;;;;;3.33;100.00;101780.81;5111353;28;20018;-70
2021/11/11 03:55:23;;;;;;;17.48;11.85;;;;;;;3.33;100.00;101789.66;5111488;28;20030;-69
2021/11/11 03:57:50;;;;;;;20.50;12.38;;;;;;;3.24;100.00;101765.22;5110981;27;20493;-69
2021/11/11 04:00:17;;;;;;;16.60;10.75;;;;;;;3.18;100.00;101758.38;5111145;28;20035;-69
2021/11/11 04:02:43;;;;;;;19.52;11.68;;;;;;;3.29;100.00;101764.16;5110708;28;20447;-70
2021/11/11 04:05:09;;;;;;;18.10;11.98;;;;;;;3.27;100.00;101762.47;5109577;28;20061;-69
2021/11/11 04:07:34;;;;;;;17.38;11.73;;;;;;;3.25;100.00;101767.81;5110914;28;20051;-69
2021/11/11 04:10:00;;;;;;;17.55;10.50;;;;;;;3.10;100.00;101741.88;5110919;28;20088;-69
2021/11/11 04:12:25;;;;;;;20.77;10.82;;;;;;;3.04;100.00;101733.25;5110965;28;20080;-70
2021/11/11 04:14:51;;;;;;;17.58;11.43;;;;;;;3.21;100.00;101752.97;5111019;28;20054;-70
2021/11/11 04:17:17;;;;;;;16.25;11.00;;;;;;;3.16;100.00;101744.28;5109916;28;20073;-69
2021/11/11 04:19:42;;;;;;;17.40;11.20;;;;;;;3.06;100.00;101742.88;5110806;28;20540;-69
2021/11/11 04:22:08;;;;;;;15.80;10.18;;;;;;;2.96;100.00;101727.38;5110335;28;20482;-67
2021/11/11 04:24:34;;;;;;;15.95;9.90;;;;;;;2.97;100.00;101742.34;5110899;28;20031;-68
2021/11/11 04:27:04;;;;;;;14.98;10.35;;;;;;;2.96;100.00;101756.50;5108774;28;20063;-68
2021/11/11 04:29:32;;;;;;;14.70;9.95;;;;;;;2.94;100.00;101753.03;5110684;28;20717;-68
2021/11/11 04:32:03;;;;;;;14.18;9.90;;;;;;;2.92;100.00;101749.56;5110115;28;20461;-69
2021/11/11 04:34:31;;;;;;;16.52;11.07;;;;;;;2.87;100.00;101743.56;5110820;28;20015;-68
2021/11/11 04:50:46;;;;;;;15.48;9.70;;;;;;;2.83;100.00;101747.25;5110726;28;20053;-68
2021/11/11 05:03:51;;;;;;;20.00;10.00;;;;;;;2.66;100.00;101731.03;5101454;28;20071;-69
2021/11/11 05:06:17;;;;;;;15.35;10.32;;;;;;;2.72;100.00;101752.00;5110366;28;20024;-69
2021/11/11 05:08:42;;;;;;;15.00;10.65;;;;;;;2.73;100.00;101753.72;5110438;28;20040;-69
2021/11/11 05:11:09;;;;;;;16.15;10.15;;;;;;;2.69;100.00;101749.47;5108999;28;20031;-69
2021/11/11 05:13:35;;;;;;;15.25;10.73;;;;;;;2.69;100.00;101750.34;5108694;28;20090;-69
2021/11/11 05:16:00;;;;;;;16.27;10.38;;;;;;;2.64;100.00;101748.75;5110425;28;20035;-70
2021/11/11 05:18:26;;;;;;;18.73;9.93;;;;;;;2.63;100.00;101744.34;5110373;28;20088;-69
2021/11/11 05:20:52;;;;;;;18.45;10.82;;;;;;;2.70;100.00;101759.16;5110103;28;20023;-69
2021/11/11 05:23:18;;;;;;;13.77;9.68;;;;;;;2.71;100.00;101753.78;5109053;28;20492;-69
2021/11/11 05:25:44;;;;;;;14.00;9.20;;;;;;;2.71;100.00;101751.13;5110200;28;20063;-69
2021/11/11 05:28:10;;;;;;;13.48;9.30;;;;;;;2.59;100.00;101738.31;5109843;28;20054;-68
2021/11/11 05:30:36;;;;;;;15.23;9.18;;;;;;;2.67;100.00;101759.25;5114517;27;20030;-70
2021/11/11 05:33:01;;;;;;;16.35;10.27;;;;;;;2.62;100.00;101755.88;5114406;28;20062;-69
2021/11/11 05:35:27;;;;;;;19.35;10.70;;;;;;;2.61;100.00;101752.34;5114218;28;20491;-68
2021/11/11 05:37:54;;;;;;;14.40;9.52;;;;;;;2.62;100.00;101751.47;5113167;28;20549;-69
2021/11/11 05:40:21;;;;;;;17.70;11.00;;;;;;;2.66;100.00;101758.38;5111448;28;20065;-69
2021/11/11 05:42:47;;;;;;;19.95;10.55;;;;;;;2.52;100.00;101744.72;5113501;28;20471;-68
2021/11/11 05:45:15;;;;;;;18.50;11.88;;;;;;;2.63;100.00;101755.84;5114102;28;20027;-69
2021/11/11 05:47:41;;;;;;;17.08;10.85;;;;;;;2.56;100.00;101746.34;5112702;28;20093;-68
2021/11/11 05:50:09;;;;;;;17.48;11.85;;;;;;;2.44;100.00;101730.84;5113840;28;20042;-68
2021/11/11 05:52:34;;;;;;;15.10;10.73;;;;;;;2.61;100.00;101762.09;5114020;28;20375;-69
2021/11/11 05:55:00;;;;;;;23.23;12.55;;;;;;;2.52;100.00;101752.69;5112511;28;20020;-69
2021/11/11 05:57:26;;;;;;;22.73;12.60;;;;;;;2.54;100.00;101757.94;5113461;28;20034;-68
2021/11/11 05:59:51;;;;;;;17.58;11.65;;;;;;;2.50;100.00;101758.91;5111369;28;20452;-69
2021/11/11 06:02:17;;;;;;;16.40;11.13;;;;;;;2.63;100.00;101773.50;5113766;28;20028;-69
2021/11/11 06:04:43;;;;;;;16.63;10.95;;;;;;;2.61;100.00;101778.00;5113754;28;20070;-68
2021/11/11 06:07:09;;;;;;;18.98;11.02;;;;;;;2.60;100.00;101779.75;5113591;28;20456;-68
2021/11/11 06:09:35;;;;;;;16.77;11.00;;;;;;;2.67;100.00;101789.25;5113542;28;20034;-69
2021/11/11 06:12:01;;;;;;;18.60;11.25;;;;;;;2.53;100.00;101756.16;5111871;28;20110;-69
2021/11/11 06:14:27;;;;;;;19.70;11.93;;;;;;;2.68;100.00;101783.06;5112303;28;20122;-69
2021/11/11 06:16:53;;;;;;;18.30;11.32;;;;;;;2.64;100.00;101769.94;5113407;28;20088;-69
2021/11/11 06:19:18;;;;;;;19.38;10.80;;;;;;;2.66;100.00;101771.63;5113363;28;20036;-69
2021/11/11 06:21:44;;;;;;;18.60;11.57;;;;;;;2.63;100.00;101776.13;5113085;28;20165;-69
2021/11/11 06:24:11;;;;;;;20.15;10.73;;;;;;;2.64;100.00;101775.25;5113351;28;20388;-69
2021/11/11 06:26:36;;;;;;;17.60;11.90;;;;;;;2.70;100.00;101781.19;5111792;28;20449;-69
2021/11/11 06:29:03;;;;;;;16.65;9.65;;;;;;;2.69;100.00;101783.91;5113019;28;20019;-69
2021/11/11 06:31:29;;;;;;;22.55;10.95;;;;;;;2.69;100.00;101776.81;5113122;28;20506;-69
2021/11/11 06:33:55;;;;;;;18.67;10.05;;;;;;;2.69;100.00;101778.59;5113363;28;20046;-69
2021/11/11 06:36:20;;;;;;;13.60;9.82;;;;;;;2.69;100.00;101789.19;5113244;28;20015;-69
2021/11/11 06:38:46;;;;;;;15.93;10.18;;;;;;;2.72;100.00;101794.41;5113040;28;20034;-68
2021/11/11 06:41:12;;;;;;;14.57;9.40;;;;;;;2.76;100.00;101809.25;5110753;28;20032;-68
2021/11/11 06:43:38;;;;;;;15.93;9.75;;;;;;;2.77;100.00;101806.56;5112745;28;20026;-69
2021/11/11 06:46:05;;;;;;;16.20;10.32;;;;;;;2.69;100.00;101791.84;5111482;28;20031;-69
2021/11/11 06:48:31;;;;;;;19.73;10.77;;;;;;;2.73;100.00;101801.41;5112967;28;20030;-69
2021/11/11 06:50:57;;;;;;;15.80;10.15;;;;;;;2.74;100.00;101796.06;5111721;28;20118;-69
2021/11/11 06:53:23;;;;;;;13.73;9.68;;;;;;;2.74;100.00;101792.56;5111479;28;20019;-69
2021/11/11 06:55:49;;;;;;;17.52;10.20;;;;;;;2.77;100.00;101800.44;5112796;28;20131;-69
2021/11/11 06:58:19;;;;;;;17.13;10.68;;;;;;;2.77;100.00;101803.91;5112723;28;20031;-68
2021/11/11 07:00:45;;;;;;;15.82;9.63;;;;;;;2.90;100.00;101817.66;5112627;28;20369;-68
2021/11/11 07:03:11;;;;;;;15.90;10.70;;;;;;;2.94;100.00;101816.63;5112514;28;20030;-70
2021/11/11 07:05:36;;;;;;;16.08;11.13;;;;;;;2.87;100.00;101807.16;5112537;27;20031;-69
2021/11/11 07:08:05;;;;;;;18.83;10.70;;;;;;;2.99;100.00;101819.97;5112400;28;20023;-68
2021/11/11 07:10:31;;;;;;;18.02;11.02;;;;;;;2.96;100.00;101798.91;5112221;28;20034;-69
2021/11/11 07:12:56;;;;;;;17.30;11.38;;;;;;;3.00;100.00;101789.94;5112322;28;20023;-69
2021/11/11 07:15:21;;;;;;;19.83;11.02;;;;;;;2.87;100.00;101764.75;5112339;28;20387;-69
2021/11/11 07:17:47;;;;;;;17.27;11.23;;;;;;;3.15;100.00;101806.19;5112418;28;20028;-69
2021/11/11 07:20:15;;;;;;;17.63;11.93;;;;;;;3.09;100.00;101781.69;5112173;28;20050;-69
2021/11/11 07:22:43;;;;;;;17.40;11.43;;;;;;;3.14;100.00;101782.38;5111981;28;20100;-69
2021/11/11 07:25:09;;;;;;;21.52;12.65;;;;;;;3.16;100.00;101769.94;5110989;28;20023;-70
2021/11/11 07:27:35;;;;;;;23.42;13.95;;;;;;;3.28;100.00;101788.06;5112182;28;20131;-69
2021/11/11 07:30:04;;;;;;;21.08;13.65;;;;;;;3.32;100.00;101785.25;5112028;28;20072;-69
2021/11/11 07:32:30;;;;;;;19.95;12.80;;;;;;;3.37;100.00;101782.44;5110767;28;20467;-69
2021/11/11 07:34:55;;;;;;;18.90;13.30;;;;;;;3.39;100.00;101778.81;5110810;28;20034;-70
2021/11/11 07:37:21;;;;;;;23.08;14.13;;;;;;;3.47;100.00;101781.19;5111946;28;20055;-69
2021/11/11 07:39:46;;;;;;;20.42;13.95;;;;;;;3.59;100.00;101789.59;5110611;28;20219;-69
2021/11/11 07:42:12;;;;;;;22.77;14.35;;;;;;;3.57;100.00;101774.63;5111558;28;20039;-69
2021/11/11 07:44:37;;;;;;;22.27;14.32;;;;;;;3.70;100.00;101770.63;5111917;28;20077;-69
2021/11/11 07:47:03;;;;;;;30.45;15.30;;;;;;;3.76;100.00;101763.31;5110316;28;20069;-68
2021/11/11 07:49:30;;;;;;;22.02;15.02;;;;;;;3.87;100.00;101766.41;5111612;28;20495;-69
2021/11/11 07:51:55;;;;;;;24.95;14.98;;;;;;;3.93;100.00;101760.00;5110286;28;20104;-67
2021/11/11 07:54:21;;;;;;;22.00;13.80;;;;;;;4.10;100.00;101776.19;5111579;28;20039;-68
2021/11/11 07:56:46;;;;;;;19.95;13.57;;;;;;;4.09;100.00;101759.38;5111637;28;20101;-68
2021/11/11 07:59:13;;;;;;;19.27;13.02;;;;;;;4.30;100.00;101774.50;5111404;28;20030;-69
2021/11/11 08:01:39;;;;;;;18.35;12.93;;;;;;;4.32;100.00;101763.81;5111316;28;20012;-69
2021/11/11 08:04:04;;;;;;;19.95;12.75;;;;;;;4.36;100.00;101755.66;5111241;28;20024;-68
2021/11/11 08:06:30;;;;;;;18.55;12.57;;;;;;;4.42;100.00;101757.22;5111137;28;20031;-68
2021/11/11 08:08:55;;;;;;;19.38;13.13;;;;;;;4.49;100.00;101758.69;5109956;28;20038;-69
2021/11/11 08:11:22;;;;;;;23.40;12.98;;;;;;;4.46;100.00;101745.53;5111331;28;20027;-68
2021/11/11 08:13:49;;;;;;;19.38;12.98;;;;;;;4.56;100.00;101754.88;5111097;28;20034;-68
2021/11/11 08:16:15;;;;;;;20.58;13.40;;;;;;;4.32;100.00;101694.78;5111007;28;20019;-68
2021/11/11 08:18:40;;;;;;;20.85;13.40;;;;;;;4.76;100.00;101765.53;5109809;28;20027;-69
2021/11/11 08:21:06;;;;;;;18.35;13.57;;;;;;;4.75;100.00;101754.03;5110819;28;20322;-69
2021/11/11 08:23:31;;;;;;;18.50;13.23;;;;;;;4.78;100.00;101741.56;5109256;28;20126;-69
2021/11/11 08:26:03;;;;;;;20.40;13.32;;;;;;;4.77;100.00;101738.03;5109509;28;20036;-69
2021/11/11 08:28:28;;;;;;;21.98;14.98;;;;;;;4.86;100.00;101748.28;5111198;28;20031;-69
2021/11/11 08:30:54;;;;;;;18.13;13.18;;;;;;;4.84;100.00;101739.53;5110776;28;20468;-69
2021/11/11 08:33:19;;;;;;;21.30;14.38;;;;;;;4.85;100.00;101746.56;5111044;28;20027;-69
2021/11/11 08:35:46;;;;;;;19.27;13.40;;;;;;;4.73;100.00;101716.06;5110755;28;20031;-69
2021/11/11 08:38:12;;;;;;;20.35;13.63;;;;;;;5.06;100.00;101758.09;5111028;28;20505;-67
2021/11/11 08:40:38;;;;;;;17.75;14.27;;;;;;;5.00;100.00;101755.69;5110798;28;20027;-69
2021/11/11 08:43:03;;;;;;;21.33;14.63;;;;;;;4.99;100.00;101746.00;5109150;28;20494;-69
2021/11/11 08:45:30;;;;;;;21.73;14.52;;;;;;;4.99;100.00;101735.38;5109358;28;20027;-69
2021/11/11 08:47:56;;;;;;;19.92;13.85;;;;;;;5.08;100.00;101748.25;5109332;28;20468;-69
2021/11/11 08:50:24;;;;;;;22.70;15.18;;;;;;;5.12;100.00;101733.91;5110385;28;20039;-69
2021/11/11 08:52:54;;;;;;;22.92;15.15;;;;;;;5.17;100.00;101735.44;5109357;28;20027;-68
2021/11/11 08:55:24;;;;;;;24.15;14.80;;;;;;;5.28;100.00;101743.81;5110811;28;20110;-68
2021/11/11 08:57:50;;;;;;;24.23;16.60;;;;;;;5.23;100.00;101727.19;5110602;28;20165;-68
2021/11/11 09:00:19;;;;;;;25.00;16.83;;;;;;;5.31;100.00;101727.72;5110278;28;20030;-69
2021/11/11 09:02:48;;;;;;;27.15;18.67;;;;;;;5.33;100.00;101720.53;5108727;28;20028;-69
2021/11/11 09:05:15;;;;;;;27.55;17.52;;;;;;;5.41;100.00;101723.72;5110339;28;20072;-69
2021/11/11 09:07:40;;;;;;;26.23;18.10;;;;;;;5.41;100.00;101710.41;5109000;28;20095;-69
2021/11/11 09:10:09;;;;;;;26.02;18.65;;;;;;;5.50;100.00;101728.63;5110177;28;20027;-69
2021/11/11 09:12:34;;;;;;;28.50;18.60;;;;;;;5.54;100.00;101724.91;5107429;28;20072;-69
2021/11/11 09:15:00;;;;;;;26.35;16.92;;;;;;;5.61;100.00;101731.66;5105179;28;20069;-69
2021/11/11 09:17:26;;;;;;;27.95;17.80;;;;;;;5.69;100.00;101718.00;5110048;28;20119;-69
2021/11/11 09:19:52;;;;;;;28.13;17.17;;;;;;;5.70;100.00;101720.59;5110252;28;20035;-69
2021/11/11 09:22:18;;;;;;;27.80;17.20;;;;;;;5.70;100.00;101709.97;5110137;28;20399;-69
2021/11/11 09:24:44;;;;;;;26.88;17.55;;;;;;;5.51;100.00;101670.97;5110377;28;20047;-69
2021/11/11 09:27:10;;;;;;;25.17;17.75;;;;;;;5.78;100.00;101702.50;5110048;28;20043;-69
2021/11/11 09:29:35;;;;;;;25.17;17.48;;;;;;;5.85;100.00;101700.44;5110525;28;20085;-69
2021/11/11 09:32:01;;;;;;;28.02;17.77;;;;;;;5.82;100.00;101687.28;5109853;28;20019;-70
2021/11/11 09:34:26;;;;;;;25.73;17.13;;;;;;;5.87;100.00;101690.59;5110247;28;20055;-68
2021/11/11 09:36:52;;;;;;;23.73;16.20;;;;;;;5.95;100.00;101691.09;5110280;28;20096;-69
2021/11/11 09:39:17;;;;;;;24.85;18.17;;;;;;;6.05;100.00;101698.56;5110368;28;20024;-69
2021/11/11 09:41:43;;;;;;;26.75;18.13;;;;;;;6.17;100.00;101697.13;5109977;28;20039;-69
2021/11/11 09:44:09;;;;;;;24.05;17.50;;;;;;;6.19;100.00;101690.78;5109933;28;20599;-69
2021/11/11 09:46:35;;;;;;;24.00;16.70;;;;;;;6.24;100.00;101682.56;5109902;28;20506;-69
2021/11/11 09:49:01;;;;;;;22.77;17.42;;;;;;;6.21;100.00;101664.94;5109972;28;20042;-69
2021/11/11 09:51:27;;;;;;;26.88;18.10;;;;;;;6.36;100.00;101672.16;5108526;28;20027;-69
2021/11/11 09:54:06;;;;;;;25.10;16.75;;;;;;;6.32;100.00;101657.28;5110043;28;20031;-68
2021/11/11 09:59:18;;;;;;;24.35;17.83;;;;;;;6.55;100.00;101666.81;5109668;28;20045;-68
2021/11/11 10:01:46;;;;;;;29.23;19.75;;;;;;;6.61;100.00;101677.19;5108443;28;20118;-69
2021/11/11 10:04:12;;;;;;;29.60;19.98;;;;;;;6.59;99.81;101671.94;5109649;28;20031;-69
2021/11/11 10:06:39;;;;;;;28.67;19.65;;;;;;;6.58;99.40;101659.50;5109744;28;20531;-69
2021/11/11 10:09:15;;;;;;;28.85;19.98;;;;;;;6.59;99.14;101650.59;5109714;28;20103;-69
2021/11/11 10:11:51;;;;;;;30.10;21.05;;;;;;;6.60;98.91;101625.66;5109422;28;20032;-69
2021/11/11 10:14:37;;;;;;;29.63;20.70;;;;;;;6.67;99.02;101631.53;5109689;28;20024;-69
2021/11/11 10:17:09;;;;;;;30.70;20.83;;;;;;;6.63;99.03;101616.63;5113545;27;20031;-69
2021/11/11 10:19:38;;;;;;;31.10;21.02;;;;;;;6.81;98.56;101643.22;5113537;28;20444;-69
2021/11/11 10:22:18;;;;;;;31.05;20.65;;;;;;;6.86;98.32;101638.53;5113306;28;20039;-69
2021/11/11 10:24:52;;;;;;;32.10;20.77;;;;;;;6.83;98.04;101625.34;5111783;28;20491;-69
2021/11/11 10:29:55;;;;;;;29.02;19.40;;;;;;;6.87;98.23;101605.56;5113511;28;20043;-69
2021/11/11 10:32:36;;;;;;;27.13;19.48;;;;;;;6.95;97.30;101607.84;5111660;28;20080;-69
2021/11/11 10:35:04;;;;;;;27.85;19.83;;;;;;;7.03;97.64;101615.44;5113235;28;20480;-69
2021/11/11 10:37:33;;;;;;;27.10;19.60;;;;;;;7.15;97.13;101610.31;5113187;28;20084;-68
2021/11/11 10:40:05;;;;;;;28.77;20.73;;;;;;;7.18;96.74;101598.59;5113202;28;20023;-68
2021/11/11 10:42:32;;;;;;;29.67;20.70;;;;;;;7.23;96.69;101607.25;5111598;28;20035;-69
2021/11/11 10:44:59;;;;;;;27.75;20.85;;;;;;;7.29;96.26;101590.91;5111523;28;20050;-69
2021/11/11 10:47:33;;;;;;;31.75;21.20;;;;;;;7.22;96.59;101582.34;5113254;28;20032;-69
2021/11/11 10:50:08;;;;;;;26.88;19.10;;;;;;;7.40;96.25;101594.72;5113121;27;20024;-68
2021/11/11 10:52:44;;;;;;;29.00;21.30;;;;;;;7.47;95.94;101600.56;5112833;28;20042;-69
2021/11/11 10:55:30;;;;;;;29.42;20.30;;;;;;;7.52;95.83;101587.84;5112739;28;20499;-69
2021/11/11 10:58:16;;;;;;;28.52;20.88;;;;;;;7.58;95.11;101587.50;5112809;28;20031;-68
2021/11/11 11:00:55;;;;;;;32.60;22.42;;;;;;;7.61;95.41;101580.16;5112769;28;20019;-69
2021/11/11 11:03:30;;;;;;;30.65;21.25;;;;;;;7.60;95.20;101567.78;5111095;28;20027;-68
2021/11/11 11:06:02;;;;;;;26.50;19.77;;;;;;;7.64;95.70;101569.31;5111327;28;20023;-68
2021/11/11 11:08:39;;;;;;;33.38;21.20;;;;;;;7.78;95.32;101571.22;5112615;28;20426;-68
2021/11/11 11:11:08;;;;;;;28.63;20.33;;;;;;;7.83;95.33;101562.00;5112670;28;20391;-69
2021/11/11 11:13:40;;;;;;;30.55;20.80;;;;;;;7.90;95.05;101558.03;5112301;28;20103;-69
2021/11/11 11:16:17;;;;;;;28.75;20.67;;;;;;;7.92;95.06;101555.28;5112266;28;20019;-68
2021/11/11 11:18:49;;;;;;;30.10;21.23;;;;;;;7.94;94.86;101550.72;5112384;28;20019;-69
2021/11/11 11:21:18;;;;;;;31.30;21.48;;;;;;;7.96;95.48;101547.00;5112375;28;20030;-69
2021/11/11 11:23:49;;;;;;;31.45;22.08;;;;;;;8.08;95.30;101546.28;5111892;28;20492;-69
2021/11/11 11:26:35;;;;;;;32.63;20.95;;;;;;;8.03;95.11;101531.50;5111953;28;20041;-68
2021/11/11 11:29:29;;;;;;;29.92;21.38;;;;;;;8.14;95.25;101545.06;5111968;28;20040;-68
2021/11/11 11:32:09;;;;;;;26.83;20.20;;;;;;;8.22;95.34;101537.53;5110873;28;20459;-68
2021/11/11 11:34:46;;;;;;;30.08;20.25;;;;;;;8.30;94.66;101535.25;5112363;28;20039;-68
2021/11/11 11:37:14;;;;;;;28.45;20.55;;;;;;;8.27;94.33;101519.38;5110468;28;20098;-67
2021/11/11 11:39:55;;;;;;;32.65;20.90;;;;;;;8.38;94.08;101525.81;5112018;28;20494;-68
2021/11/11 11:42:31;;;;;;;32.88;23.17;;;;;;;8.34;94.33;101516.25;5111783;28;20024;-69